Time;durP1;ratioP1;P1;durP2;ratioP2;P2;SDS_P1;SDS_P2;PMS_P1;PMS_P2;Temp;Humidity;BMP_temperature;BMP_pressure;BME280_temperature;BME280_humidity;BME280_pressure;Samples;Min_cycle;Max_cycle;Signal;HPM_P1;HPM_P2
2024/01/12 00:01:17;;;;;;;;;;;;;;;-3.39;84.12;95186.44;5074901;28;925;-60
2024/01/12 00:03:51;;;;;;;;;;;;;;;-3.84;83.98;95193.81;5074919;28;1009;-60
2024/01/12 00:06:25;;;;;;;;;;;;;;;-4.04;85.15;95193.91;5074636;28;937;-60
2024/01/12 00:09:00;;;;;;;;;;;;;;;-4.00;85.89;95198.09;5074941;28;1977;-60
2024/01/12 00:11:34;;;;;;;;;;;;;;;-3.73;86.67;95193.31;5074725;28;1001;-60
2024/01/12 00:14:08;;;;;;;;;;;;;;;-3.90;85.65;95196.75;5074906;28;945;-60
2024/01/12 00:16:47;;;;;;;;;;;;;;;-4.04;87.39;95193.91;5074662;28;1467;-60
2024/01/12 00:19:22;;;;;;;;;;;;;;;-4.09;87.28;95190.69;5074416;28;903;-60
2024/01/12 00:21:56;;;;;;;;;;;;;;;-3.81;87.71;95193.69;5074768;28;929;-60
2024/01/12 00:24:30;;;;;;;;;;;;;;;-3.62;86.40;95198.88;5074429;28;934;-60
2024/01/12 00:27:05;;;;;;;;;;;;;;;-3.95;84.20;95210.00;5074339;28;944;-60
2024/01/12 00:29:39;;;;;;;;;;;;;;;-4.07;85.74;95205.38;5074224;28;1913;-60
2024/01/12 00:32:13;;;;;;;;;;;;;;;-3.82;85.72;95214.66;5074423;28;1056;-60
2024/01/12 00:34:48;;;;;;;;;;;;;;;-3.96;84.28;95202.25;5074565;28;984;-60
2024/01/12 00:37:20;;;;;;;;;;;;;;;-4.24;85.77;95213.97;5073890;28;1568;-60
2024/01/12 00:39:54;;;;;;;;;;;;;;;-4.06;86.19;95219.25;5074098;28;1019;-60
2024/01/12 00:42:27;;;;;;;;;;;;;;;-3.97;85.05;95216.22;5074019;28;980;-60
2024/01/12 00:45:03;;;;;;;;;;;;;;;-4.43;83.51;95227.03;5074189;28;1088;-59
2024/01/12 00:47:38;;;;;;;;;;;;;;;-4.51;85.83;95221.31;5073792;28;1170;-60
2024/01/12 00:50:12;;;;;;;;;;;;;;;-4.44;84.40;95229.69;5073946;28;1981;-60
2024/01/12 00:52:44;;;;;;;;;;;;;;;-4.58;85.91;95227.72;5073729;28;1150;-60
2024/01/12 00:55:18;;;;;;;;;;;;;;;-4.51;85.66;95231.75;5073922;28;978;-60
2024/01/12 00:57:53;;;;;;;;;;;;;;;-4.61;85.66;95230.44;5073749;28;1015;-60
2024/01/12 01:00:27;;;;;;;;;;;;;;;-4.40;85.75;95233.84;5073231;28;899;-60
2024/01/12 01:03:02;;;;;;;;;;;;;;;-4.31;84.62;95225.63;5073890;28;1010;-60
2024/01/12 01:05:36;;;;;;;;;;;;;;;-4.47;84.95;95225.47;5073817;28;933;-60
2024/01/12 01:08:10;;;;;;;;;;;;;;;-4.83;85.36;95167.94;5073214;28;1995;-60
2024/01/12 01:10:45;;;;;;;;;;;;;;;-4.65;84.74;95218.44;5073695;28;1188;-60
2024/01/12 01:13:19;;;;;;;;;;;;;;;-4.78;85.57;95212.91;5073402;28;1011;-60
2024/01/12 01:15:54;;;;;;;;;;;;;;;-4.76;85.65;95213.69;5073775;28;1008;-60
2024/01/12 01:18:30;;;;;;;;;;;;;;;-4.91;85.24;95213.47;5073506;28;893;-59
2024/01/12 01:21:04;;;;;;;;;;;;;;;-4.84;87.08;95208.81;5073588;28;930;-60
2024/01/12 01:23:38;;;;;;;;;;;;;;;-4.56;86.56;95210.22;5073407;28;876;-60
2024/01/12 01:26:13;;;;;;;;;;;;;;;-4.34;86.27;95204.88;5073487;28;1002;-60
2024/01/12 01:28:44;;;;;;;;;;;;;;;-4.28;85.04;95194.16;5073398;28;1910;-60
2024/01/12 01:31:18;;;;;;;;;;;;;;;-4.60;85.42;95193.00;5073542;28;936;-60
2024/01/12 01:33:53;;;;;;;;;;;;;;;-4.77;84.79;95193.75;5073238;28;922;-60
2024/01/12 01:36:27;;;;;;;;;;;;;;;-4.60;85.28;95180.81;5073090;28;1740;-59
2024/01/12 01:39:01;;;;;;;;;;;;;;;-4.69;84.06;95189.03;5069113;28;1080;-59
2024/01/12 01:41:36;;;;;;;;;;;;;;;-4.95;83.29;95175.41;5053418;28;952;-60
2024/01/12 01:44:10;;;;;;;;;;;;;;;-5.32;84.66;95173.53;5053098;28;988;-60
2024/01/12 01:46:44;;;;;;;;;;;;;;;-5.24;86.60;95167.97;5053116;28;1255;-60
2024/01/12 01:49:18;;;;;;;;;;;;;;;-4.70;85.66;95163.88;5053160;28;1975;-60
2024/01/12 01:51:53;;;;;;;;;;;;;;;-4.41;86.61;95165.16;5054384;28;1163;-60
2024/01/12 01:54:28;;;;;;;;;;;;;;;-4.24;86.22;95166.16;5073061;28;980;-60
2024/01/12 01:57:01;;;;;;;;;;;;;;;-4.16;85.71;95162.25;5073209;28;1942;-60
2024/01/12 01:59:35;;;;;;;;;;;;;;;-4.52;83.46;95163.03;5072871;28;1574;-60
2024/01/12 02:02:09;;;;;;;;;;;;;;;-4.92;84.71;95159.59;5073152;28;938;-59
2024/01/12 02:04:43;;;;;;;;;;;;;;;-4.90;85.91;95142.13;5072961;28;1017;-59
2024/01/12 02:07:18;;;;;;;;;;;;;;;-4.74;85.46;95136.25;5072948;28;1016;-60
2024/01/12 02:09:52;;;;;;;;;;;;;;;-4.69;85.66;95133.41;5072848;28;1918;-60
2024/01/12 02:12:26;;;;;;;;;;;;;;;-4.72;85.26;95139.63;5075847;28;924;-59
2024/01/12 02:15:00;;;;;;;;;;;;;;;-4.77;84.54;95133.75;5060310;28;1676;-60
2024/01/12 02:17:34;;;;;;;;;;;;;;;-4.83;83.64;95131.44;5076699;28;914;-60
2024/01/12 02:20:09;;;;;;;;;;;;;;;-4.99;83.52;95129.53;5076714;28;930;-60
2024/01/12 02:22:43;;;;;;;;;;;;;;;-5.08;85.49;95132.53;5077121;28;918;-59
2024/01/12 02:25:15;;;;;;;;;;;;;;;-4.95;85.37;95133.69;5076772;28;1477;-60
2024/01/12 02:27:50;;;;;;;;;;;;;;;-4.62;85.03;95127.00;5076795;28;965;-59
2024/01/12 02:30:24;;;;;;;;;;;;;;;-4.56;84.18;95135.38;5076515;28;1909;-60
2024/01/12 02:33:03;;;;;;;;;;;;;;;-4.55;83.10;95131.88;5076793;28;947;-59
2024/01/12 02:35:37;;;;;;;;;;;;;;;-4.81;83.51;95138.25;5091409;28;974;-60
2024/01/12 02:38:12;;;;;;;;;;;;;;;-4.77;84.31;95142.44;5076671;28;929;-59
2024/01/12 02:40:44;;;;;;;;;;;;;;;-4.68;84.75;95137.72;5076710;28;965;-59
2024/01/12 02:43:18;;;;;;;;;;;;;;;-4.93;83.97;95144.88;5076437;28;942;-60
2024/01/12 02:45:53;;;;;;;;;;;;;;;-4.96;84.49;95137.19;5076561;28;960;-60
2024/01/12 02:48:27;;;;;;;;;;;;;;;-4.85;83.79;95136.72;5075880;28;1910;-60
2024/01/12 02:51:01;;;;;;;;;;;;;;;-4.84;83.91;95140.16;5076252;28;941;-60
2024/01/12 02:53:36;;;;;;;;;;;;;;;-4.62;85.58;95134.84;5076063;28;1175;-60
2024/01/12 02:56:10;;;;;;;;;;;;;;;-4.85;83.63;95139.31;5076270;28;934;-60
2024/01/12 02:58:44;;;;;;;;;;;;;;;-5.14;84.52;95145.81;5076377;28;1010;-59
2024/01/12 03:01:19;;;;;;;;;;;;;;;-4.95;85.60;95146.72;5075944;28;1764;-60
2024/01/12 03:03:53;;;;;;;;;;;;;;;-4.68;85.08;95151.63;5075985;28;940;-60
2024/01/12 03:06:27;;;;;;;;;;;;;;;-4.51;85.68;95137.81;5075890;28;945;-60
2024/01/12 03:09:02;;;;;;;;;;;;;;;-4.39;85.29;95147.66;5076132;28;1906;-60
2024/01/12 03:11:36;;;;;;;;;;;;;;;-4.20;84.45;95139.81;5075882;28;988;-60
2024/01/12 03:14:10;;;;;;;;;;;;;;;-4.21;84.00;95135.53;5075788;28;1033;-59
2024/01/12 03:16:44;;;;;;;;;;;;;;;-4.81;82.41;95146.09;5075681;28;986;-60
2024/01/12 03:19:18;;;;;;;;;;;;;;;-5.16;85.50;95147.63;5075876;28;895;-59
2024/01/12 03:21:53;;;;;;;;;;;;;;;-4.94;85.79;95151.00;5075626;28;913;-60
2024/01/12 03:24:27;;;;;;;;;;;;;;;-4.64;85.46;95150.56;5074946;28;1017;-59
2024/01/12 03:27:01;;;;;;;;;;;;;;;-4.45;85.51;95153.16;5075515;28;941;-59
2024/01/12 03:29:35;;;;;;;;;;;;;;;-4.43;83.91;95155.72;5075508;28;1987;-59
2024/01/12 03:32:10;;;;;;;;;;;;;;;-4.57;83.14;95143.28;5075590;28;953;-59
2024/01/12 03:34:44;;;;;;;;;;;;;;;-4.96;83.84;95139.78;5075416;28;1020;-60
2024/01/12 03:37:18;;;;;;;;;;;;;;;-5.33;85.01;95141.41;5075393;28;1008;-59
2024/01/12 03:39:53;;;;;;;;;;;;;;;-5.37;86.12;95141.59;5075293;28;1005;-59
2024/01/12 03:42:27;;;;;;;;;;;;;;;-5.19;87.35;95137.38;5075413;28;1105;-59
2024/01/12 03:45:01;;;;;;;;;;;;;;;-4.81;87.17;95143.47;5075251;28;973;-60
2024/01/12 03:47:34;;;;;;;;;;;;;;;-4.52;87.35;95136.94;5075019;28;1112;-60
2024/01/12 03:50:09;;;;;;;;;;;;;;;-4.39;86.44;95139.81;5075254;28;1973;-60
2024/01/12 03:52:43;;;;;;;;;;;;;;;-4.71;84.84;95143.91;5075270;28;1170;-60
2024/01/12 03:55:18;;;;;;;;;;;;;;;-4.79;85.39;95148.63;5075143;28;1026;-60
2024/01/12 03:57:52;;;;;;;;;;;;;;;-4.67;85.47;95142.00;5075050;28;1274;-60
2024/01/12 04:00:26;;;;;;;;;;;;;;;-4.61;85.02;95137.38;5074847;28;1091;-59
2024/01/12 04:03:01;;;;;;;;;;;;;;;-4.69;83.59;95133.41;5075192;28;1002;-60
2024/01/12 04:05:33;;;;;;;;;;;;;;;-4.84;83.21;95135.78;5074947;28;1295;-60
2024/01/12 04:08:07;;;;;;;;;;;;;;;-5.24;82.40;95132.31;5074861;28;1246;-59
2024/01/12 04:10:41;;;;;;;;;;;;;;;-5.39;84.22;95138.22;5074722;28;899;-60
2024/01/12 04:13:15;;;;;;;;;;;;;;;-5.33;84.10;95140.53;5074723;28;1001;-60
2024/01/12 04:15:50;;;;;;;;;;;;;;;-5.21;84.86;95142.63;5074561;28;965;-60
2024/01/12 04:18:24;;;;;;;;;;;;;;;-5.08;83.90;95150.78;5074639;28;951;-60
2024/01/12 04:21:00;;;;;;;;;;;;;;;-4.78;84.09;95148.56;5074431;28;1008;-60
2024/01/12 04:23:34;;;;;;;;;;;;;;;-4.82;83.38;95153.97;5074318;28;954;-60
2024/01/12 04:26:09;;;;;;;;;;;;;;;-5.26;81.16;95160.22;5074696;28;990;-60
2024/01/12 04:28:43;;;;;;;;;;;;;;;-5.41;81.28;95166.09;5074029;28;1917;-60
2024/01/12 04:31:15;;;;;;;;;;;;;;;-5.58;84.90;95158.97;5074136;28;1080;-60
2024/01/12 04:33:47;;;;;;;;;;;;;;;-5.38;85.35;95166.81;5074015;28;1417;-60
2024/01/12 04:36:24;;;;;;;;;;;;;;;-5.43;84.46;95173.13;5073372;28;997;-60
2024/01/12 04:38:59;;;;;;;;;;;;;;;-5.65;82.58;95174.03;5074293;28;1017;-59
2024/01/12 04:41:33;;;;;;;;;;;;;;;-5.38;83.49;95160.75;5074203;28;1000;-60
2024/01/12 04:44:08;;;;;;;;;;;;;;;-5.17;83.77;95154.63;5074102;28;911;-60
2024/01/12 04:46:42;;;;;;;;;;;;;;;-5.45;81.42;95161.94;5073973;28;1346;-61
2024/01/12 04:49:17;;;;;;;;;;;;;;;-5.66;83.19;95156.69;5074014;28;1913;-60
2024/01/12 04:51:51;;;;;;;;;;;;;;;-5.47;82.47;95142.91;5073891;28;1150;-60
2024/01/12 04:54:26;;;;;;;;;;;;;;;-5.51;81.96;95136.97;5073681;28;996;-60
2024/01/12 04:56:57;;;;;;;;;;;;;;;-5.93;82.93;95138.69;5073934;28;1472;-60
2024/01/12 04:59:32;;;;;;;;;;;;;;;-5.81;84.22;95134.72;5073917;28;955;-60
2024/01/12 05:02:04;;;;;;;;;;;;;;;-5.59;83.22;95133.84;5073831;28;1638;-60
2024/01/12 05:04:36;;;;;;;;;;;;;;;-5.51;83.74;95130.00;5074004;28;1567;-60
2024/01/12 05:07:08;;;;;;;;;;;;;;;-5.56;83.56;95131.09;5073819;28;1464;-59
2024/01/12 05:09:40;;;;;;;;;;;;;;;-5.40;83.32;95129.56;5056610;28;1917;-60
2024/01/12 05:12:12;;;;;;;;;;;;;;;-5.22;84.00;95138.31;5073724;28;1453;-60
2024/01/12 05:14:42;;;;;;;;;;;;;;;-5.24;83.48;95134.94;5073590;28;1628;-59
2024/01/12 05:17:14;;;;;;;;;;;;;;;-5.41;81.59;95145.25;5073726;28;1569;-59
2024/01/12 05:19:48;;;;;;;;;;;;;;;-5.62;82.36;95147.84;5073721;28;937;-60
2024/01/12 05:22:23;;;;;;;;;;;;;;;-5.54;83.66;95139.69;5073654;28;996;-59
2024/01/12 05:24:55;;;;;;;;;;;;;;;-5.31;84.01;95146.56;5073480;28;1851;-60
2024/01/12 05:27:29;;;;;;;;;;;;;;;-5.47;82.08;95141.13;5073225;28;995;-59
2024/01/12 05:30:03;;;;;;;;;;;;;;;-5.56;83.01;95144.13;5073132;28;2004;-60
2024/01/12 05:44:15;;;;;;;;;;;;;;;-5.85;88.21;95146.19;5131576;27;1329;-59
2024/01/12 05:46:47;;;;;;;;;;;;;;;-5.30;86.90;95161.28;5131821;28;1547;-59
2024/01/12 05:49:20;;;;;;;;;;;;;;;-5.06;84.45;95167.19;5131534;28;1924;-59
2024/01/12 05:51:51;;;;;;;;;;;;;;;-5.44;81.01;95161.88;5131494;28;1906;-59
2024/01/12 05:54:23;;;;;;;;;;;;;;;-5.55;83.37;95154.50;5131549;28;1605;-59
2024/01/12 05:56:55;;;;;;;;;;;;;;;-5.46;83.74;95155.00;5130516;27;1829;-59
2024/01/12 05:59:27;;;;;;;;;;;;;;;-5.26;83.38;95154.16;5130556;28;1470;-59
2024/01/12 06:01:59;;;;;;;;;;;;;;;-5.17;82.77;95159.00;5130559;28;1432;-59
2024/01/12 06:04:32;;;;;;;;;;;;;;;-5.23;82.94;95160.09;5130613;28;1687;-59
2024/01/12 06:07:04;;;;;;;;;;;;;;;-5.08;83.05;95163.81;5128545;28;1507;-58
2024/01/12 06:09:36;;;;;;;;;;;;;;;-4.84;83.06;95161.03;5131646;28;1451;-59
2024/01/12 06:12:08;;;;;;;;;;;;;;;-4.97;80.19;95169.41;5131101;27;1998;-61
2024/01/12 06:14:41;;;;;;;;;;;;;;;-5.47;80.45;95166.34;5131259;28;1564;-62
2024/01/12 06:17:13;;;;;;;;;;;;;;;-5.64;82.32;95173.09;5131188;28;1475;-62
2024/01/12 06:19:46;;;;;;;;;;;;;;;-5.62;82.40;95167.84;5131132;28;1574;-61
2024/01/12 06:22:18;;;;;;;;;;;;;;;-5.31;83.40;95170.84;5130975;28;1515;-61
2024/01/12 06:24:50;;;;;;;;;;;;;;;-4.96;83.60;95171.09;5130736;28;1503;-62
2024/01/12 06:27:21;;;;;;;;;;;;;;;-5.04;81.26;95170.59;5130783;28;2234;-62
2024/01/12 06:29:53;;;;;;;;;;;;;;;-5.06;81.38;95176.78;5130917;28;1510;-61
2024/01/12 06:32:25;;;;;;;;;;;;;;;-5.33;82.11;95190.06;5130669;28;2006;-62
2024/01/12 06:34:58;;;;;;;;;;;;;;;-5.14;83.41;95179.69;5130776;28;1509;-61
2024/01/12 06:37:30;;;;;;;;;;;;;;;-4.43;81.32;95193.09;5130610;28;1485;-62
2024/01/12 06:40:03;;;;;;;;;;;;;;;-2.23;73.16;95190.03;5130674;28;1469;-61
2024/01/12 06:42:37;;;;;;;;;;;;;;;-0.24;65.19;95197.81;5130373;28;1645;-62
2024/01/12 06:45:12;;;;;;;;;;;;;;;2.61;56.07;95217.50;5130253;28;1647;-62
2024/01/12 06:47:43;;;;;;;;;;;;;;;2.76;50.72;95231.38;5130434;28;1633;-60
2024/01/12 06:50:15;;;;;;;;;;;;;;;2.74;50.71;95226.22;5130394;28;1577;-59
2024/01/12 06:52:48;;;;;;;;;;;;;;;3.41;49.91;95236.22;5130211;28;2000;-60
2024/01/12 06:55:20;;;;;;;;;;;;;;;4.92;46.78;95253.63;5118435;27;1547;-60
2024/01/12 06:57:54;;;;;;;;;;;;;;;6.15;44.22;95247.91;5116821;28;924;-60
2024/01/12 07:00:26;;;;;;;;;;;;;;;6.90;41.09;95264.41;5116186;28;1878;-60
2024/01/12 07:02:58;;;;;;;;;;;;;;;7.22;40.36;95273.00;5116598;28;1578;-60
2024/01/12 07:05:30;;;;;;;;;;;;;;;8.47;38.77;95282.91;5116406;28;1506;-60
2024/01/12 07:08:05;;;;;;;;;;;;;;;9.83;36.61;95293.81;5116283;28;933;-59
2024/01/12 07:10:38;;;;;;;;;;;;;;;9.11;36.73;95305.25;5116357;28;1629;-59
2024/01/12 07:13:12;;;;;;;;;;;;;;;8.99;37.16;95299.25;5115201;28;1901;-59
2024/01/12 07:15:43;;;;;;;;;;;;;;;10.10;36.40;95304.41;5116324;28;1481;-59
2024/01/12 07:18:17;;;;;;;;;;;;;;;9.50;37.20;95299.66;5115835;28;1696;-59
2024/01/12 07:20:49;;;;;;;;;;;;;;;9.30;37.91;95306.97;5116243;28;1629;-58
2024/01/12 07:23:21;;;;;;;;;;;;;;;9.24;38.04;95302.22;5115975;28;2286;-57
2024/01/12 07:25:53;;;;;;;;;;;;;;;9.46;37.90;95310.78;5115665;28;1454;-57
2024/01/12 07:28:28;;;;;;;;;;;;;;;10.09;36.93;95317.91;5115595;28;1228;-57
2024/01/12 07:31:02;;;;;;;;;;;;;;;10.81;36.15;95317.78;5113667;28;1535;-57
2024/01/12 07:33:34;;;;;;;;;;;;;;;11.51;34.49;95321.13;5111521;28;1456;-58
2024/01/12 07:36:06;;;;;;;;;;;;;;;11.57;34.51;95324.13;5116097;28;1452;-58
2024/01/12 07:38:38;;;;;;;;;;;;;;;9.75;36.23;95316.78;5115561;28;1570;-57
2024/01/12 07:41:09;;;;;;;;;;;;;;;9.95;37.41;95313.94;5112736;28;1737;-57
2024/01/12 07:43:42;;;;;;;;;;;;;;;7.94;40.25;95296.72;5114896;28;1934;-57
2024/01/12 07:46:17;;;;;;;;;;;;;;;4.79;46.19;95274.94;5113351;28;1361;-57
2024/01/12 07:48:51;;;;;;;;;;;;;;;5.40;47.26;95268.28;5112852;28;1436;-57
2024/01/12 07:51:25;;;;;;;;;;;;;;;6.87;44.00;95277.94;5115030;28;1432;-57
2024/01/12 07:53:58;;;;;;;;;;;;;;;8.37;40.79;95287.41;5115126;28;1420;-58
2024/01/12 07:56:30;;;;;;;;;;;;;;;9.16;38.80;95292.31;5112564;28;1507;-58
2024/01/12 07:59:03;;;;;;;;;;;;;;;9.14;38.70;95307.63;5114614;28;1668;-58
2024/01/12 08:01:35;;;;;;;;;;;;;;;9.40;38.40;95306.91;5114646;28;1617;-57
2024/01/12 08:04:07;;;;;;;;;;;;;;;7.65;41.87;95300.22;5114607;28;2000;-58
2024/01/12 08:06:39;;;;;;;;;;;;;;;5.67;45.58;95289.88;5114005;28;1527;-58
2024/01/12 08:09:13;;;;;;;;;;;;;;;4.37;50.94;95274.75;5112521;28;1590;-57
2024/01/12 08:11:45;;;;;;;;;;;;;;;4.12;51.54;95283.75;5114729;28;1432;-57
2024/01/12 08:14:17;;;;;;;;;;;;;;;4.34;51.29;95274.13;5113511;28;1581;-58
2024/01/12 08:16:50;;;;;;;;;;;;;;;4.40;51.01;95263.91;5111121;28;1418;-58
2024/01/12 08:19:22;;;;;;;;;;;;;;;4.87;49.93;95269.84;5114672;28;1633;-58
2024/01/12 08:21:54;;;;;;;;;;;;;;;3.79;52.67;95256.25;5112727;28;1910;-57
2024/01/12 08:24:26;;;;;;;;;;;;;;;2.83;55.52;95248.47;5114322;28;1407;-58
2024/01/12 08:26:59;;;;;;;;;;;;;;;1.83;60.27;95247.59;5114531;28;1634;-58
2024/01/12 08:29:33;;;;;;;;;;;;;;;1.42;61.92;95231.00;5112390;28;1648;-57
2024/01/12 08:32:06;;;;;;;;;;;;;;;1.29;63.14;95232.78;5114414;28;1509;-57
2024/01/12 08:34:39;;;;;;;;;;;;;;;1.21;64.75;95225.38;5113909;28;1446;-59
2024/01/12 08:37:12;;;;;;;;;;;;;;;1.27;65.09;95225.00;5114748;28;1526;-59
2024/01/12 08:39:44;;;;;;;;;;;;;;;0.85;67.19;95226.88;5114864;28;925;-60
2024/01/12 08:42:17;;;;;;;;;;;;;;;0.88;66.96;95216.16;5113580;28;1902;-57
2024/01/12 08:44:49;;;;;;;;;;;;;;;0.80;67.68;95215.81;5113843;28;1558;-57
2024/01/12 08:47:21;;;;;;;;;;;;;;;0.82;67.88;95208.66;5114058;28;1687;-57
2024/01/12 08:49:54;;;;;;;;;;;;;;;0.82;68.46;95218.34;5111621;28;1598;-57
2024/01/12 08:52:27;;;;;;;;;;;;;;;1.05;68.39;95219.47;5114042;28;1629;-57
2024/01/12 08:55:00;;;;;;;;;;;;;;;1.45;67.54;95222.06;5114116;28;1460;-57
2024/01/12 08:57:35;;;;;;;;;;;;;;;1.70;66.47;95224.69;5113865;27;1458;-57
2024/01/12 09:00:09;;;;;;;;;;;;;;;1.50;67.53;95236.63;5111778;28;1556;-57
2024/01/12 09:02:42;;;;;;;;;;;;;;;1.88;67.11;95229.69;5111052;28;1913;-57
2024/01/12 09:05:14;;;;;;;;;;;;;;;2.28;64.64;95243.53;5113839;28;1947;-57
2024/01/12 09:07:46;;;;;;;;;;;;;;;2.12;67.83;95240.28;5111691;28;1644;-58
2024/01/12 09:10:19;;;;;;;;;;;;;;;2.30;66.80;95241.63;5113360;28;1669;-58
2024/01/12 09:12:53;;;;;;;;;;;;;;;2.76;64.95;95252.50;5112603;28;1162;-58
2024/01/12 09:15:26;;;;;;;;;;;;;;;3.25;61.81;95259.47;5111451;28;1513;-58
2024/01/12 09:17:59;;;;;;;;;;;;;;;3.39;60.11;95263.72;5113385;27;1589;-58
2024/01/12 09:20:34;;;;;;;;;;;;;;;3.67;58.46;95268.63;5113663;28;1209;-58
2024/01/12 09:23:06;;;;;;;;;;;;;;;3.79;57.97;95268.66;5111170;28;1906;-58
2024/01/12 09:25:41;;;;;;;;;;;;;;;4.12;54.17;95281.09;5113464;28;1350;-58
2024/01/12 09:28:13;;;;;;;;;;;;;;;4.45;49.75;95295.31;5113281;28;1573;-57
2024/01/12 09:30:46;;;;;;;;;;;;;;;4.55;49.77;95298.06;5113485;28;1467;-59
2024/01/12 09:33:20;;;;;;;;;;;;;;;4.88;48.92;95300.72;5113638;28;1563;-58
2024/01/12 09:35:54;;;;;;;;;;;;;;;5.74;48.36;95292.84;5113892;28;936;-59
2024/01/12 09:38:29;;;;;;;;;;;;;;;5.55;47.26;95305.97;5112595;28;1146;-58
2024/01/12 09:41:04;;;;;;;;;;;;;;;5.65;47.87;95293.59;5113387;28;1286;-58
2024/01/12 09:43:39;;;;;;;;;;;;;;;5.82;46.30;95298.38;5113421;28;1973;-59
2024/01/12 09:46:17;;;;;;;;;;;;;;;5.91;46.22;95301.22;5113692;28;960;-59
2024/01/12 09:48:49;;;;;;;;;;;;;;;6.06;45.42;95306.09;5113684;28;1011;-60
2024/01/12 09:51:20;;;;;;;;;;;;;;;6.43;42.78;95308.28;5113515;28;1490;-59
2024/01/12 09:53:53;;;;;;;;;;;;;;;6.71;40.46;95319.16;5113359;28;1181;-59
2024/01/12 09:56:24;;;;;;;;;;;;;;;6.51;41.48;95315.59;5113674;28;1257;-59
2024/01/12 09:58:59;;;;;;;;;;;;;;;6.51;41.79;95318.25;5113644;28;1000;-59
2024/01/12 10:01:32;;;;;;;;;;;;;;;6.49;41.75;95320.19;5113346;28;1401;-59
2024/01/12 10:04:04;;;;;;;;;;;;;;;6.28;42.15;95303.41;5113304;28;1997;-59
2024/01/12 10:06:38;;;;;;;;;;;;;;;5.97;43.31;95295.41;5113591;28;1026;-59
2024/01/12 10:09:12;;;;;;;;;;;;;;;5.81;43.87;95288.72;5113355;28;1399;-59
2024/01/12 10:11:45;;;;;;;;;;;;;;;5.88;44.29;95281.09;5113419;28;1056;-59
2024/01/12 10:14:21;;;;;;;;;;;;;;;6.16;45.07;95284.91;5113545;28;1071;-59
2024/01/12 10:16:56;;;;;;;;;;;;;;;6.56;43.88;95278.81;5113882;28;937;-59
2024/01/12 10:19:30;;;;;;;;;;;;;;;6.60;43.08;95287.38;5113461;28;929;-59
2024/01/12 10:22:04;;;;;;;;;;;;;;;6.51;44.45;95285.53;5113329;28;1890;-59
2024/01/12 10:24:38;;;;;;;;;;;;;;;6.47;44.30;95282.28;5113332;28;948;-59
2024/01/12 10:27:12;;;;;;;;;;;;;;;6.79;43.79;95276.84;5113345;28;1003;-59
2024/01/12 10:29:45;;;;;;;;;;;;;;;6.70;43.57;95274.16;5115114;28;869;-59
2024/01/12 10:32:19;;;;;;;;;;;;;;;6.73;44.91;95273.84;5117235;28;1033;-59
2024/01/12 10:34:54;;;;;;;;;;;;;;;6.82;44.28;95273.88;5117345;28;952;-59
2024/01/12 10:37:28;;;;;;;;;;;;;;;7.26;43.41;95270.06;5117153;28;997;-59
2024/01/12 10:40:06;;;;;;;;;;;;;;;6.87;43.32;95272.63;5116733;28;1290;-59
2024/01/12 10:42:42;;;;;;;;;;;;;;;6.93;44.31;95267.63;5116661;28;1910;-59
2024/01/12 10:45:25;;;;;;;;;;;;;;;6.73;43.55;95269.38;5116693;28;1014;-59
2024/01/12 10:48:01;;;;;;;;;;;;;;;6.79;45.24;95260.88;5116919;28;956;-59
2024/01/12 10:50:39;;;;;;;;;;;;;;;6.71;43.85;95262.53;5116870;28;1076;-59
2024/01/12 10:53:32;;;;;;;;;;;;;;;6.69;44.52;95265.31;5116553;28;1153;-59
2024/01/12 10:56:07;;;;;;;;;;;;;;;7.06;43.46;95262.06;5116681;28;953;-59
2024/01/12 10:58:41;;;;;;;;;;;;;;;7.06;42.95;95263.88;5116546;27;932;-58
2024/01/12 11:01:16;;;;;;;;;;;;;;;6.99;42.34;95260.94;5116434;28;925;-58
2024/01/12 11:03:50;;;;;;;;;;;;;;;6.66;42.82;95260.28;5116551;28;1910;-58
2024/01/12 11:06:24;;;;;;;;;;;;;;;6.77;43.08;95254.00;5116399;28;992;-58
2024/01/12 11:08:59;;;;;;;;;;;;;;;6.95;42.59;95259.53;5116566;28;996;-58
2024/01/12 11:11:41;;;;;;;;;;;;;;;7.11;43.44;95259.00;5116342;28;941;-57
2024/01/12 11:14:16;;;;;;;;;;;;;;;6.80;43.07;95262.56;5116270;28;987;-58
2024/01/12 11:16:52;;;;;;;;;;;;;;;6.54;43.00;95253.38;5116319;28;1000;-58
2024/01/12 11:19:25;;;;;;;;;;;;;;;6.84;43.27;95250.66;5116370;28;1119;-58
2024/01/12 11:22:05;;;;;;;;;;;;;;;7.06;43.56;95243.47;5113914;28;1220;-58
2024/01/12 11:24:44;;;;;;;;;;;;;;;7.33;42.29;95261.41;5115969;28;988;-58
2024/01/12 11:27:18;;;;;;;;;;;;;;;7.15;42.77;95257.72;5108068;28;1496;-58
2024/01/12 11:29:57;;;;;;;;;;;;;;;6.62;42.96;95261.50;5116118;28;1447;-59
2024/01/12 11:32:31;;;;;;;;;;;;;;;6.15;42.83;95261.16;5115845;28;940;-58
2024/01/12 11:35:11;;;;;;;;;;;;;;;6.52;43.76;95257.97;5116043;28;1655;-58
2024/01/12 11:37:45;;;;;;;;;;;;;;;6.38;44.83;95254.72;5116380;28;931;-58
2024/01/12 11:40:18;;;;;;;;;;;;;;;6.49;44.23;95258.22;5115760;28;1478;-57
2024/01/12 11:42:51;;;;;;;;;;;;;;;6.36;44.18;95256.66;5115557;28;1905;-58
2024/01/12 11:45:23;;;;;;;;;;;;;;;6.53;44.80;95246.38;5115721;28;1767;-58
2024/01/12 11:47:55;;;;;;;;;;;;;;;6.32;43.48;95247.28;5115774;28;1609;-58
2024/01/12 11:50:27;;;;;;;;;;;;;;;6.16;44.00;95252.22;5114458;28;1487;-58
2024/01/12 11:53:00;;;;;;;;;;;;;;;6.09;44.52;95246.59;5115217;28;1444;-57
2024/01/12 11:55:36;;;;;;;;;;;;;;;6.04;43.95;95244.31;5115396;28;940;-58
2024/01/12 11:58:12;;;;;;;;;;;;;;;5.95;44.26;95241.59;5115668;28;933;-57
2024/01/12 12:00:43;;;;;;;;;;;;;;;6.09;44.56;95243.94;5115466;28;1903;-58
2024/01/12 12:03:16;;;;;;;;;;;;;;;6.16;44.08;95238.94;5115023;28;1914;-57
2024/01/12 12:05:50;;;;;;;;;;;;;;;5.81;44.89;95240.94;5115422;28;1625;-57
2024/01/12 12:08:22;;;;;;;;;;;;;;;6.05;45.18;95243.38;5115222;28;1486;-58
2024/01/12 12:10:57;;;;;;;;;;;;;;;6.07;44.30;95240.59;5115528;28;939;-57
2024/01/12 12:13:30;;;;;;;;;;;;;;;5.93;44.77;95247.03;5115143;28;1487;-58
2024/01/12 12:16:04;;;;;;;;;;;;;;;5.56;44.18;95241.31;5115046;28;1030;-57
2024/01/12 12:18:38;;;;;;;;;;;;;;;5.63;45.04;95232.75;5115123;28;1512;-57
2024/01/12 12:21:12;;;;;;;;;;;;;;;5.82;45.07;95228.50;5115022;28;948;-57
2024/01/12 12:23:41;;;;;;;;;;;;;;;5.53;45.31;95223.84;5115253;28;1909;-58
2024/01/12 12:26:08;;;;;;;;;;;;;;;5.39;45.08;95221.53;5114825;28;1051;-59
2024/01/12 12:28:34;;;;;;;;;;;;;;;5.38;46.14;95223.31;5113795;28;965;-57
2024/01/12 12:31:00;;;;;;;;;;;;;;;5.29;46.20;95213.47;5114784;28;1028;-57
2024/01/12 12:33:26;;;;;;;;;;;;;;;5.04;47.01;95214.66;5114827;28;970;-57
2024/01/12 12:36:02;;;;;;;;;;;;;;;5.11;47.36;95207.91;5114611;28;1118;-57
2024/01/12 12:38:29;;;;;;;;;;;;;;;5.18;47.31;95200.28;5114814;28;999;-57
2024/01/12 12:40:55;;;;;;;;;;;;;;;5.15;47.37;95206.69;5114567;28;1039;-58
2024/01/12 12:43:22;;;;;;;;;;;;;;;5.13;47.83;95211.25;5114165;28;1967;-58
2024/01/12 12:45:52;;;;;;;;;;;;;;;4.89;48.51;95207.03;5114748;28;988;-57
2024/01/12 12:48:18;;;;;;;;;;;;;;;4.92;48.78;95207.75;5114549;28;949;-58
2024/01/12 12:50:44;;;;;;;;;;;;;;;4.72;48.31;95214.63;5114393;28;1032;-59
2024/01/12 12:53:11;;;;;;;;;;;;;;;4.66;48.97;95210.69;5114077;28;1173;-59
2024/01/12 12:55:38;;;;;;;;;;;;;;;4.61;49.04;95211.06;5114321;28;1048;-57
2024/01/12 12:58:04;;;;;;;;;;;;;;;4.67;49.54;95207.06;5114250;28;1052;-57
2024/01/12 13:00:30;;;;;;;;;;;;;;;4.52;49.73;95205.66;5114429;28;988;-56
2024/01/12 13:02:56;;;;;;;;;;;;;;;4.24;50.12;95211.31;5114351;28;1988;-58
2024/01/12 13:05:23;;;;;;;;;;;;;;;4.44;49.89;95207.09;5114368;28;987;-58
2024/01/12 13:07:49;;;;;;;;;;;;;;;4.25;50.11;95207.72;5114127;27;1626;-57
2024/01/12 13:10:15;;;;;;;;;;;;;;;4.15;50.74;95212.03;5113940;28;1091;-57
2024/01/12 13:12:41;;;;;;;;;;;;;;;4.14;50.46;95209.53;5114302;28;1055;-58
2024/01/12 13:15:08;;;;;;;;;;;;;;;4.10;50.56;95220.34;5113933;28;1099;-58
2024/01/12 13:17:35;;;;;;;;;;;;;;;3.87;51.22;95208.91;5114238;28;1206;-58
2024/01/12 13:20:03;;;;;;;;;;;;;;;3.99;51.25;95220.34;5113872;28;1031;-58
2024/01/12 13:22:29;;;;;;;;;;;;;;;3.72;51.67;95216.22;5114003;28;1910;-59
2024/01/12 13:24:59;;;;;;;;;;;;;;;3.67;52.36;95218.38;5113984;28;965;-59
2024/01/12 13:27:25;;;;;;;;;;;;;;;3.42;53.23;95213.28;5113968;28;1059;-58
2024/01/12 13:29:51;;;;;;;;;;;;;;;3.36;53.64;95216.38;5113960;28;1023;-59
2024/01/12 13:32:17;;;;;;;;;;;;;;;3.39;53.79;95221.44;5113974;28;1034;-59
2024/01/12 13:34:43;;;;;;;;;;;;;;;3.41;53.17;95224.81;5113698;28;1113;-58
2024/01/12 13:37:09;;;;;;;;;;;;;;;3.24;53.73;95224.25;5113322;28;1082;-59
2024/01/12 13:39:35;;;;;;;;;;;;;;;3.27;54.52;95221.41;5113646;28;1315;-59
2024/01/12 13:42:02;;;;;;;;;;;;;;;3.39;54.83;95227.56;5113181;28;1508;-59
2024/01/12 13:44:28;;;;;;;;;;;;;;;3.40;54.15;95231.91;5113048;28;1973;-59
2024/01/12 13:46:54;;;;;;;;;;;;;;;3.05;55.47;95224.78;5113157;28;1307;-59